sensor_id;sensor_type;location;lat;lon;timestamp;pressure;altitude;pressure_sealevel;temperature;humidity
80624;BME280;70269;44.768;9.600;2023-07-13T00:01:19;97326.81;;;21.56;73.01
80624;BME280;70269;44.768;9.600;2023-07-13T00:03:44;97318.31;;;21.52;72.98
80624;BME280;70269;44.768;9.600;2023-07-13T00:06:10;97310.63;;;21.49;73.04
80624;BME280;70269;44.768;9.600;2023-07-13T00:08:35;97293.00;;;21.55;72.68
80624;BME280;70269;44.768;9.600;2023-07-13T00:11:02;97267.16;;;21.56;72.87
80624;BME280;70269;44.768;9.600;2023-07-13T00:13:28;97274.53;;;21.61;73.22
80624;BME280;70269;44.768;9.600;2023-07-13T00:15:55;97275.03;;;21.68;73.10
80624;BME280;70269;44.768;9.600;2023-07-13T00:18:21;97260.41;;;21.77;72.75
80624;BME280;70269;44.768;9.600;2023-07-13T00:20:47;97263.97;;;21.78;73.26
80624;BME280;70269;44.768;9.600;2023-07-13T00:23:13;97247.31;;;21.64;73.77
80624;BME280;70269;44.768;9.600;2023-07-13T00:25:38;97242.16;;;21.58;73.76
80624;BME280;70269;44.768;9.600;2023-07-13T00:28:04;97246.06;;;21.52;74.65
80624;BME280;70269;44.768;9.600;2023-07-13T00:30:29;97251.59;;;21.47;74.43
80624;BME280;70269;44.768;9.600;2023-07-13T00:32:57;97237.59;;;21.43;75.41
80624;BME280;70269;44.768;9.600;2023-07-13T00:35:22;97239.53;;;21.43;75.44
80624;BME280;70269;44.768;9.600;2023-07-13T00:37:48;97234.34;;;21.41;74.47
80624;BME280;70269;44.768;9.600;2023-07-13T00:40:15;97238.69;;;21.42;75.09
80624;BME280;70269;44.768;9.600;2023-07-13T00:42:41;97242.59;;;21.41;76.22
80624;BME280;70269;44.768;9.600;2023-07-13T00:47:53;97227.56;;;21.28;76.27
80624;BME280;70269;44.768;9.600;2023-07-13T00:50:21;97231.47;;;21.22;75.95
80624;BME280;70269;44.768;9.600;2023-07-13T00:52:50;97218.56;;;21.18;76.79
80624;BME280;70269;44.768;9.600;2023-07-13T00:55:17;97220.50;;;21.12;76.92
80624;BME280;70269;44.768;9.600;2023-07-13T00:57:44;97223.56;;;21.11;77.11
80624;BME280;70269;44.768;9.600;2023-07-13T01:00:10;97216.94;;;21.12;77.15
80624;BME280;70269;44.768;9.600;2023-07-13T01:02:42;97211.16;;;21.13;77.06
80624;BME280;70269;44.768;9.600;2023-07-13T01:05:15;97204.03;;;21.17;76.50
80624;BME280;70269;44.768;9.600;2023-07-13T01:07:41;97200.47;;;21.17;76.72
80624;BME280;70269;44.768;9.600;2023-07-13T01:10:10;97205.94;;;21.22;77.19
80624;BME280;70269;44.768;9.600;2023-07-13T01:12:35;97201.53;;;21.21;76.91
80624;BME280;70269;44.768;9.600;2023-07-13T01:15:02;97203.19;;;21.22;76.92
80624;BME280;70269;44.768;9.600;2023-07-13T01:17:30;97205.38;;;21.20;77.30
80624;BME280;70269;44.768;9.600;2023-07-13T01:19:56;97196.34;;;21.14;77.27
80624;BME280;70269;44.768;9.600;2023-07-13T01:22:22;97197.19;;;21.10;77.76
80624;BME280;70269;44.768;9.600;2023-07-13T01:24:51;97186.22;;;21.10;78.28
80624;BME280;70269;44.768;9.600;2023-07-13T01:27:22;97182.16;;;21.02;78.55
80624;BME280;70269;44.768;9.600;2023-07-13T01:29:51;97180.81;;;20.94;78.75
80624;BME280;70269;44.768;9.600;2023-07-13T01:32:22;97172.03;;;20.92;78.68
80624;BME280;70269;44.768;9.600;2023-07-13T01:34:51;97172.69;;;20.84;79.13
80624;BME280;70269;44.768;9.600;2023-07-13T01:37:20;97167.75;;;20.81;79.67
80624;BME280;70269;44.768;9.600;2023-07-13T01:39:45;97155.72;;;20.77;79.86
80624;BME280;70269;44.768;9.600;2023-07-13T01:42:12;97158.22;;;20.74;79.83
80624;BME280;70269;44.768;9.600;2023-07-13T01:44:37;97148.88;;;20.70;80.13
80624;BME280;70269;44.768;9.600;2023-07-13T01:47:03;97155.78;;;20.62;80.65
80624;BME280;70269;44.768;9.600;2023-07-13T01:49:29;97155.56;;;20.58;80.94
80624;BME280;70269;44.768;9.600;2023-07-13T01:51:54;97154.19;;;20.56;80.84
80624;BME280;70269;44.768;9.600;2023-07-13T01:54:20;97158.66;;;20.47;81.21
80624;BME280;70269;44.768;9.600;2023-07-13T01:56:45;97146.56;;;20.48;81.30
80624;BME280;70269;44.768;9.600;2023-07-13T01:59:11;97143.84;;;20.48;80.97
80624;BME280;70269;44.768;9.600;2023-07-13T02:01:36;97148.25;;;20.39;81.90
80624;BME280;70269;44.768;9.600;2023-07-13T02:04:02;97157.25;;;20.49;81.09
80624;BME280;70269;44.768;9.600;2023-07-13T02:06:31;97162.09;;;20.63;80.35
80624;BME280;70269;44.768;9.600;2023-07-13T02:08:58;97154.06;;;20.76;79.44
80624;BME280;70269;44.768;9.600;2023-07-13T02:11:24;97151.22;;;20.91;78.74
80624;BME280;70269;44.768;9.600;2023-07-13T02:13:50;97152.31;;;20.90;78.65
80624;BME280;70269;44.768;9.600;2023-07-13T02:16:16;97152.59;;;20.89;78.48
80624;BME280;70269;44.768;9.600;2023-07-13T02:18:42;97154.78;;;20.87;79.08
80624;BME280;70269;44.768;9.600;2023-07-13T02:21:07;97155.50;;;21.03;78.14
80624;BME280;70269;44.768;9.600;2023-07-13T02:23:33;97160.25;;;20.53;80.07
80624;BME280;70269;44.768;9.600;2023-07-13T02:26:00;97173.97;;;20.53;79.82
80624;BME280;70269;44.768;9.600;2023-07-13T02:28:28;97168.28;;;20.39;80.76
80624;BME280;70269;44.768;9.600;2023-07-13T02:30:53;97169.97;;;20.35;80.78
80624;BME280;70269;44.768;9.600;2023-07-13T02:33:19;97167.78;;;20.22;81.07
80624;BME280;70269;44.768;9.600;2023-07-13T02:35:47;97171.88;;;20.25;81.23
80624;BME280;70269;44.768;9.600;2023-07-13T02:38:14;97177.41;;;20.19;81.53
80624;BME280;70269;44.768;9.600;2023-07-13T02:40:39;97176.53;;;20.29;81.01
80624;BME280;70269;44.768;9.600;2023-07-13T02:43:05;97184.78;;;20.29;80.91
80624;BME280;70269;44.768;9.600;2023-07-13T02:45:30;97186.13;;;20.37;80.67
80624;BME280;70269;44.768;9.600;2023-07-13T02:47:56;97202.50;;;20.52;78.89
80624;BME280;70269;44.768;9.600;2023-07-13T02:50:22;97200.88;;;20.51;77.47
80624;BME280;70269;44.768;9.600;2023-07-13T02:52:47;97204.97;;;20.53;77.41
80624;BME280;70269;44.768;9.600;2023-07-13T02:55:13;97203.63;;;20.46;77.67
80624;BME280;70269;44.768;9.600;2023-07-13T02:57:38;97212.69;;;20.46;77.39
80624;BME280;70269;44.768;9.600;2023-07-13T03:00:04;97215.75;;;20.40;76.95
80624;BME280;70269;44.768;9.600;2023-07-13T03:02:31;97224.81;;;20.35;77.47
80624;BME280;70269;44.768;9.600;2023-07-13T03:04:57;97226.22;;;20.23;77.46
80624;BME280;70269;44.768;9.600;2023-07-13T03:07:23;97224.00;;;20.25;77.66
80624;BME280;70269;44.768;9.600;2023-07-13T03:09:55;97226.47;;;20.36;76.33
80624;BME280;70269;44.768;9.600;2023-07-13T03:12:23;97225.63;;;20.41;75.81
80624;BME280;70269;44.768;9.600;2023-07-13T03:14:50;97237.69;;;20.40;75.48
80624;BME280;70269;44.768;9.600;2023-07-13T03:17:16;97241.00;;;20.27;76.38
80624;BME280;70269;44.768;9.600;2023-07-13T03:19:42;97242.66;;;20.33;75.65
80624;BME280;70269;44.768;9.600;2023-07-13T03:22:10;97248.69;;;20.35;75.52
80624;BME280;70269;44.768;9.600;2023-07-13T03:24:37;97261.84;;;20.28;75.79
80624;BME280;70269;44.768;9.600;2023-07-13T03:27:04;97264.84;;;20.31;75.72
80624;BME280;70269;44.768;9.600;2023-07-13T03:29:31;97272.53;;;20.34;74.95
80624;BME280;70269;44.768;9.600;2023-07-13T03:31:57;97268.72;;;20.35;73.94
80624;BME280;70269;44.768;9.600;2023-07-13T03:34:23;97264.59;;;20.33;73.55
80624;BME280;70269;44.768;9.600;2023-07-13T03:36:49;97261.25;;;20.31;73.47
80624;BME280;70269;44.768;9.600;2023-07-13T03:39:15;97260.19;;;20.27;73.06
80624;BME280;70269;44.768;9.600;2023-07-13T03:41:48;97266.25;;;20.13;74.00
80624;BME280;70269;44.768;9.600;2023-07-13T03:44:18;97279.44;;;20.06;74.39
80624;BME280;70269;44.768;9.600;2023-07-13T03:46:47;97305.47;;;20.14;73.93
80624;BME280;70269;44.768;9.600;2023-07-13T03:49:13;97314.78;;;20.13;75.25
80624;BME280;70269;44.768;9.600;2023-07-13T03:51:39;97318.88;;;20.26;72.37
80624;BME280;70269;44.768;9.600;2023-07-13T03:54:04;97305.75;;;20.17;72.88
80624;BME280;70269;44.768;9.600;2023-07-13T03:56:30;97295.09;;;19.96;73.96
80624;BME280;70269;44.768;9.600;2023-07-13T03:58:58;97315.38;;;20.05;74.19
80624;BME280;70269;44.768;9.600;2023-07-13T04:01:24;97320.84;;;20.10;74.35
80624;BME280;70269;44.768;9.600;2023-07-13T04:03:50;97325.47;;;20.19;74.22
80624;BME280;70269;44.768;9.600;2023-07-13T04:06:19;97318.34;;;20.18;74.93
80624;BME280;70269;44.768;9.600;2023-07-13T04:08:54;97305.75;;;20.23;75.85
80624;BME280;70269;44.768;9.600;2023-07-13T04:11:22;97282.44;;;20.20;73.49
80624;BME280;70269;44.768;9.600;2023-07-13T04:13:49;97284.31;;;20.25;75.19
80624;BME280;70269;44.768;9.600;2023-07-13T04:16:16;97298.59;;;20.27;74.34
80624;BME280;70269;44.768;9.600;2023-07-13T04:18:43;97323.03;;;20.23;75.60
80624;BME280;70269;44.768;9.600;2023-07-13T04:21:08;97314.25;;;20.21;76.47
80624;BME280;70269;44.768;9.600;2023-07-13T04:23:35;97318.34;;;20.18;77.17
80624;BME280;70269;44.768;9.600;2023-07-13T04:26:01;97309.03;;;20.19;75.78
80624;BME280;70269;44.768;9.600;2023-07-13T04:28:26;97312.84;;;20.18;77.01
80624;BME280;70269;44.768;9.600;2023-07-13T04:30:53;97307.94;;;20.20;78.08
80624;BME280;70269;44.768;9.600;2023-07-13T04:33:19;97297.81;;;20.06;77.24
80624;BME280;70269;44.768;9.600;2023-07-13T04:35:49;97302.50;;;19.90;77.82
80624;BME280;70269;44.768;9.600;2023-07-13T04:38:15;97306.31;;;19.94;78.64
80624;BME280;70269;44.768;9.600;2023-07-13T04:40:50;97321.94;;;19.94;79.13
80624;BME280;70269;44.768;9.600;2023-07-13T04:43:17;97333.22;;;19.92;78.82
80624;BME280;70269;44.768;9.600;2023-07-13T04:45:42;97316.78;;;19.87;77.64
80624;BME280;70269;44.768;9.600;2023-07-13T04:48:08;97312.66;;;19.90;77.25
80624;BME280;70269;44.768;9.600;2023-07-13T04:50:36;97303.59;;;19.89;76.58
80624;BME280;70269;44.768;9.600;2023-07-13T04:53:02;97314.28;;;19.91;76.42
80624;BME280;70269;44.768;9.600;2023-07-13T04:55:29;97325.53;;;19.89;77.82
80624;BME280;70269;44.768;9.600;2023-07-13T04:57:56;97323.88;;;19.88;78.35
80624;BME280;70269;44.768;9.600;2023-07-13T05:00:23;97318.69;;;19.82;78.82
80624;BME280;70269;44.768;9.600;2023-07-13T05:02:49;97327.75;;;19.87;79.16
80624;BME280;70269;44.768;9.600;2023-07-13T05:05:15;97326.09;;;19.81;80.00
80624;BME280;70269;44.768;9.600;2023-07-13T05:07:40;97314.59;;;19.79;79.81
80624;BME280;70269;44.768;9.600;2023-07-13T05:10:06;97307.44;;;19.78;80.74
80624;BME280;70269;44.768;9.600;2023-07-13T05:12:32;97288.81;;;19.75;80.98
80624;BME280;70269;44.768;9.600;2023-07-13T05:14:58;97284.97;;;19.76;80.65
80624;BME280;70269;44.768;9.600;2023-07-13T05:17:24;97306.38;;;19.74;79.68
80624;BME280;70269;44.768;9.600;2023-07-13T05:19:49;97302.50;;;19.75;80.60
80624;BME280;70269;44.768;9.600;2023-07-13T05:22:15;97275.41;;;19.78;81.27
80624;BME280;70269;44.768;9.600;2023-07-13T05:24:41;97269.91;;;19.78;82.72
80624;BME280;70269;44.768;9.600;2023-07-13T05:27:06;97291.00;;;19.78;81.66
80624;BME280;70269;44.768;9.600;2023-07-13T05:29:32;97300.34;;;19.87;82.18
80624;BME280;70269;44.768;9.600;2023-07-13T05:31:57;97308.00;;;19.80;81.97
80624;BME280;70269;44.768;9.600;2023-07-13T05:34:23;97308.00;;;19.65;82.89
80624;BME280;70269;44.768;9.600;2023-07-13T05:36:49;97286.06;;;19.29;84.85
80624;BME280;70269;44.768;9.600;2023-07-13T05:39:15;97288.22;;;19.32;85.02
80624;BME280;70269;44.768;9.600;2023-07-13T05:41:41;97297.00;;;19.34;84.17
80624;BME280;70269;44.768;9.600;2023-07-13T05:44:07;97296.78;;;19.46;83.75
80624;BME280;70269;44.768;9.600;2023-07-13T05:46:32;97268.00;;;19.54;83.40
80624;BME280;70269;44.768;9.600;2023-07-13T05:48:58;97255.69;;;19.51;83.80
80624;BME280;70269;44.768;9.600;2023-07-13T05:51:23;97298.72;;;19.56;83.76
80624;BME280;70269;44.768;9.600;2023-07-13T05:53:49;97334.03;;;19.57;82.31
80624;BME280;70269;44.768;9.600;2023-07-13T05:56:14;97289.09;;;19.58;80.39
80624;BME280;70269;44.768;9.600;2023-07-13T05:58:40;97243.06;;;19.40;83.11
80624;BME280;70269;44.768;9.600;2023-07-13T06:01:09;97260.06;;;19.52;82.15
80624;BME280;70269;44.768;9.600;2023-07-13T06:03:35;97263.63;;;19.58;80.85
80624;BME280;70269;44.768;9.600;2023-07-13T06:06:04;97271.84;;;19.58;82.08
80624;BME280;70269;44.768;9.600;2023-07-13T06:08:30;97289.38;;;19.57;83.44
80624;BME280;70269;44.768;9.600;2023-07-13T06:11:05;97317.06;;;19.50;83.76
80624;BME280;70269;44.768;9.600;2023-07-13T06:13:30;97327.19;;;19.50;84.58
80624;BME280;70269;44.768;9.600;2023-07-13T06:15:56;97320.34;;;19.52;84.92
80624;BME280;70269;44.768;9.600;2023-07-13T06:18:22;97323.91;;;19.53;84.46
80624;BME280;70269;44.768;9.600;2023-07-13T06:20:47;97340.06;;;19.69;83.88
80624;BME280;70269;44.768;9.600;2023-07-13T06:23:13;97337.06;;;19.71;84.23
80624;BME280;70269;44.768;9.600;2023-07-13T06:25:40;97321.16;;;19.73;85.00
80624;BME280;70269;44.768;9.600;2023-07-13T06:28:05;97323.91;;;19.68;85.71
80624;BME280;70269;44.768;9.600;2023-07-13T06:30:31;97304.19;;;19.56;86.32
80624;BME280;70269;44.768;9.600;2023-07-13T06:32:57;97291.03;;;19.48;88.96
80624;BME280;70269;44.768;9.600;2023-07-13T06:35:24;97323.88;;;19.43;88.81
80624;BME280;70269;44.768;9.600;2023-07-13T06:37:50;97348.53;;;19.53;88.10
80624;BME280;70269;44.768;9.600;2023-07-13T06:40:16;97335.16;;;19.61;86.63
80624;BME280;70269;44.768;9.600;2023-07-13T06:42:42;97318.91;;;19.45;86.44
80624;BME280;70269;44.768;9.600;2023-07-13T06:45:08;97309.88;;;19.39;88.60
80624;BME280;70269;44.768;9.600;2023-07-13T06:47:34;97303.00;;;19.26;87.86
80624;BME280;70269;44.768;9.600;2023-07-13T06:50:00;97313.41;;;19.14;89.00
80624;BME280;70269;44.768;9.600;2023-07-13T06:52:25;97312.03;;;19.07;90.38
80624;BME280;70269;44.768;9.600;2023-07-13T06:54:51;97297.75;;;18.89;91.57
80624;BME280;70269;44.768;9.600;2023-07-13T06:57:16;97275.00;;;18.79;92.66
80624;BME280;70269;44.768;9.600;2023-07-13T06:59:42;97264.91;;;18.84;91.55
80624;BME280;70269;44.768;9.600;2023-07-13T07:02:09;97273.69;;;18.91;94.18
80624;BME280;70269;44.768;9.600;2023-07-13T07:04:35;97277.50;;;18.85;94.44
80624;BME280;70269;44.768;9.600;2023-07-13T07:07:01;97296.09;;;18.83;94.03
80624;BME280;70269;44.768;9.600;2023-07-13T07:09:26;97319.63;;;18.84;93.68
80624;BME280;70269;44.768;9.600;2023-07-13T07:11:52;97331.94;;;18.82;93.55
80624;BME280;70269;44.768;9.600;2023-07-13T07:14:18;97347.81;;;18.85;93.05
80624;BME280;70269;44.768;9.600;2023-07-13T07:16:43;97356.56;;;18.82;93.25
80624;BME280;70269;44.768;9.600;2023-07-13T07:19:09;97359.31;;;18.82;93.29
80624;BME280;70269;44.768;9.600;2023-07-13T07:21:34;97338.25;;;18.82;93.94
80624;BME280;70269;44.768;9.600;2023-07-13T07:24:00;97332.47;;;18.84;94.57
80624;BME280;70269;44.768;9.600;2023-07-13T07:26:25;97352.22;;;18.96;95.22
80624;BME280;70269;44.768;9.600;2023-07-13T07:28:51;97351.94;;;18.87;96.05
80624;BME280;70269;44.768;9.600;2023-07-13T07:31:17;97333.28;;;18.69;97.93
80624;BME280;70269;44.768;9.600;2023-07-13T07:33:42;97306.19;;;18.73;97.93
80624;BME280;70269;44.768;9.600;2023-07-13T07:36:08;97294.47;;;18.87;96.44
80624;BME280;70269;44.768;9.600;2023-07-13T07:38:34;97292.00;;;18.86;96.39
80624;BME280;70269;44.768;9.600;2023-07-13T07:41:03;97293.66;;;18.82;95.62
80624;BME280;70269;44.768;9.600;2023-07-13T07:43:28;97329.50;;;18.95;95.93
80624;BME280;70269;44.768;9.600;2023-07-13T07:45:54;97346.25;;;19.14;94.39
80624;BME280;70269;44.768;9.600;2023-07-13T07:48:20;97349.88;;;19.25;94.22
80624;BME280;70269;44.768;9.600;2023-07-13T07:50:46;97343.81;;;19.18;96.13
80624;BME280;70269;44.768;9.600;2023-07-13T07:53:11;97333.94;;;19.17;96.72
80624;BME280;70269;44.768;9.600;2023-07-13T07:55:38;97321.34;;;19.21;96.48
80624;BME280;70269;44.768;9.600;2023-07-13T07:58:05;97319.19;;;19.28;95.22
80624;BME280;70269;44.768;9.600;2023-07-13T08:00:30;97321.91;;;19.33;96.59
80624;BME280;70269;44.768;9.600;2023-07-13T08:02:57;97327.97;;;19.35;95.83
80624;BME280;70269;44.768;9.600;2023-07-13T08:05:23;97328.78;;;19.40;95.96
80624;BME280;70269;44.768;9.600;2023-07-13T08:07:48;97333.19;;;19.57;95.35
80624;BME280;70269;44.768;9.600;2023-07-13T08:10:14;97333.78;;;19.74;92.29
80624;BME280;70269;44.768;9.600;2023-07-13T08:12:40;97341.72;;;19.91;94.13
80624;BME280;70269;44.768;9.600;2023-07-13T08:15:09;97332.66;;;20.05;93.07
80624;BME280;70269;44.768;9.600;2023-07-13T08:17:34;97311.78;;;20.14;93.34
80624;BME280;70269;44.768;9.600;2023-07-13T08:20:00;97303.00;;;20.12;95.66
80624;BME280;70269;44.768;9.600;2023-07-13T08:22:27;97296.22;;;19.74;95.64
80624;BME280;70269;44.768;9.600;2023-07-13T08:24:52;97292.13;;;19.72;95.68
80624;BME280;70269;44.768;9.600;2023-07-13T08:27:25;97301.97;;;19.73;94.25
80624;BME280;70269;44.768;9.600;2023-07-13T08:29:51;97311.28;;;19.77;92.86
80624;BME280;70269;44.768;9.600;2023-07-13T08:32:19;97329.94;;;19.85;93.15
80624;BME280;70269;44.768;9.600;2023-07-13T08:34:45;97347.16;;;20.16;92.15
80624;BME280;70269;44.768;9.600;2023-07-13T08:37:11;97350.84;;;20.76;89.38
80624;BME280;70269;44.768;9.600;2023-07-13T08:39:36;97363.88;;;21.14;85.38
80624;BME280;70269;44.768;9.600;2023-07-13T08:42:12;97366.13;;;21.95;84.62
80624;BME280;70269;44.768;9.600;2023-07-13T08:44:57;97374.81;;;22.36;81.38
80624;BME280;70269;44.768;9.600;2023-07-13T08:47:32;97376.44;;;22.90;82.23
80624;BME280;70269;44.768;9.600;2023-07-13T08:50:01;97376.13;;;23.15;76.84
80624;BME280;70269;44.768;9.600;2023-07-13T08:52:37;97377.56;;;23.31;77.22
80624;BME280;70269;44.768;9.600;2023-07-13T08:55:22;97375.03;;;23.35;78.49
80624;BME280;70269;44.768;9.600;2023-07-13T08:57:54;97375.56;;;22.94;75.62
80624;BME280;70269;44.768;9.600;2023-07-13T09:00:34;97382.31;;;23.50;77.85
80624;BME280;70269;44.768;9.600;2023-07-13T09:03:03;97403.63;;;22.96;78.01
80624;BME280;70269;44.768;9.600;2023-07-13T09:05:40;97401.94;;;22.77;79.44
80624;BME280;70269;44.768;9.600;2023-07-13T09:10:45;97411.47;;;21.98;79.92
80624;BME280;70269;44.768;9.600;2023-07-13T09:13:30;97415.09;;;21.88;80.15
80624;BME280;70269;44.768;9.600;2023-07-13T09:15:59;97419.09;;;22.06;80.57
80624;BME280;70269;44.768;9.600;2023-07-13T09:19:02;97413.88;;;22.91;74.28
80624;BME280;70269;44.768;9.600;2023-07-13T09:21:36;97402.19;;;23.65;78.09
80624;BME280;70269;44.768;9.600;2023-07-13T09:24:41;97399.63;;;24.39;73.40
80624;BME280;70269;44.768;9.600;2023-07-13T09:27:35;97389.34;;;24.58;70.57
80624;BME280;70269;44.768;9.600;2023-07-13T09:32:31;97383.56;;;24.08;70.99
80624;BME280;70269;44.768;9.600;2023-07-13T09:34:58;97378.50;;;23.64;71.13
80624;BME280;70269;44.768;9.600;2023-07-13T09:37:30;97381.94;;;24.07;71.73
80624;BME280;70269;44.768;9.600;2023-07-13T09:39:58;97383.63;;;24.54;68.60
80624;BME280;70269;44.768;9.600;2023-07-13T09:42:25;97388.66;;;24.01;70.59
80624;BME280;70269;44.768;9.600;2023-07-13T09:47:42;97399.59;;;24.57;71.63
80624;BME280;70269;44.768;9.600;2023-07-13T09:50:16;97400.69;;;24.56;70.71
80624;BME280;70269;44.768;9.600;2023-07-13T09:52:45;97399.38;;;24.54;72.35
80624;BME280;70269;44.768;9.600;2023-07-13T09:55:34;97395.34;;;25.33;67.28
80624;BME280;70269;44.768;9.600;2023-07-13T09:58:21;97392.13;;;25.54;65.96
80624;BME280;70269;44.768;9.600;2023-07-13T10:03:21;97381.66;;;25.64;69.91
80624;BME280;70269;44.768;9.600;2023-07-13T10:05:48;97377.63;;;25.21;68.76
80624;BME280;70269;44.768;9.600;2023-07-13T10:08:21;97368.09;;;25.76;69.04
80624;BME280;70269;44.768;9.600;2023-07-13T10:10:53;97368.50;;;25.84;66.67
80624;BME280;70269;44.768;9.600;2023-07-13T10:13:37;97376.03;;;25.56;66.75
80624;BME280;70269;44.768;9.600;2023-07-13T10:16:07;97373.88;;;25.53;65.18
80624;BME280;70269;44.768;9.600;2023-07-13T10:18:44;97367.53;;;25.66;65.52
80624;BME280;70269;44.768;9.600;2023-07-13T10:21:15;97372.25;;;25.65;66.46
80624;BME280;70269;44.768;9.600;2023-07-13T10:23:42;97373.38;;;25.51;66.95
80624;BME280;70269;44.768;9.600;2023-07-13T10:26:18;97373.25;;;25.69;64.70
80624;BME280;70269;44.768;9.600;2023-07-13T10:28:47;97358.91;;;25.18;63.20
80624;BME280;70269;44.768;9.600;2023-07-13T10:31:15;97364.22;;;25.28;63.45
80624;BME280;70269;44.768;9.600;2023-07-13T10:33:42;97361.00;;;25.48;64.32
80624;BME280;70269;44.768;9.600;2023-07-13T10:36:15;97360.59;;;25.55;64.47
80624;BME280;70269;44.768;9.600;2023-07-13T10:38:43;97351.06;;;24.97;65.43
80624;BME280;70269;44.768;9.600;2023-07-13T10:41:18;97347.09;;;25.26;65.13
80624;BME280;70269;44.768;9.600;2023-07-13T10:43:48;97348.63;;;25.82;66.02
80624;BME280;70269;44.768;9.600;2023-07-13T10:46:18;97349.00;;;25.66;62.09
80624;BME280;70269;44.768;9.600;2023-07-13T10:48:49;97351.06;;;25.83;65.41
80624;BME280;70269;44.768;9.600;2023-07-13T10:51:18;97349.88;;;25.75;62.61
80624;BME280;70269;44.768;9.600;2023-07-13T10:53:46;97340.19;;;25.87;63.64
80624;BME280;70269;44.768;9.600;2023-07-13T10:59:46;97340.50;;;26.07;60.49
80624;BME280;70269;44.768;9.600;2023-07-13T11:01:58;97344.72;;;26.05;60.78
80624;BME280;70269;44.768;9.600;2023-07-13T11:04:26;97343.09;;;26.26;64.54
80624;BME280;70269;44.768;9.600;2023-07-13T11:07:16;97337.16;;;26.19;59.35
80624;BME280;70269;44.768;9.600;2023-07-13T11:09:43;97331.44;;;26.15;63.15
80624;BME280;70269;44.768;9.600;2023-07-13T11:15:00;97331.06;;;25.86;60.35
80624;BME280;70269;44.768;9.600;2023-07-13T11:35:35;97330.16;;;25.91;61.12
80624;BME280;70269;44.768;9.600;2023-07-13T11:38:02;97322.44;;;26.32;59.98
80624;BME280;70269;44.768;9.600;2023-07-13T11:40:29;97316.53;;;26.56;61.50
80624;BME280;70269;44.768;9.600;2023-07-13T11:43:00;97310.81;;;26.52;57.78
80624;BME280;70269;44.768;9.600;2023-07-13T11:45:26;97307.25;;;26.61;56.84
80624;BME280;70269;44.768;9.600;2023-07-13T11:47:53;97303.06;;;26.32;57.95
80624;BME280;70269;44.768;9.600;2023-07-13T11:50:23;97291.69;;;26.42;57.39
80624;BME280;70269;44.768;9.600;2023-07-13T11:52:50;97282.94;;;26.49;60.93
80624;BME280;70269;44.768;9.600;2023-07-13T11:55:20;97281.56;;;26.29;59.21
80624;BME280;70269;44.768;9.600;2023-07-13T11:58:05;97281.63;;;26.15;59.61
80624;BME280;70269;44.768;9.600;2023-07-13T12:00:32;97275.38;;;26.32;58.68
80624;BME280;70269;44.768;9.600;2023-07-13T12:02:59;97274.09;;;26.38;57.64
80624;BME280;70269;44.768;9.600;2023-07-13T12:05:26;97256.44;;;26.65;60.94
80624;BME280;70269;44.768;9.600;2023-07-13T12:07:52;97252.41;;;26.80;59.94
80624;BME280;70269;44.768;9.600;2023-07-13T12:10:27;97249.53;;;26.45;57.54
80624;BME280;70269;44.768;9.600;2023-07-13T12:13:04;97253.94;;;26.55;58.78
80624;BME280;70269;44.768;9.600;2023-07-13T12:18:15;97260.16;;;26.61;56.84
80624;BME280;70269;44.768;9.600;2023-07-13T12:20:41;97250.25;;;26.60;56.82
80624;BME280;70269;44.768;9.600;2023-07-13T12:23:29;97238.69;;;26.75;56.96
80624;BME280;70269;44.768;9.600;2023-07-13T12:25:55;97249.53;;;27.11;59.50
80624;BME280;70269;44.768;9.600;2023-07-13T12:28:44;97247.56;;;26.94;56.42
80624;BME280;70269;44.768;9.600;2023-07-13T12:36:30;97231.34;;;26.79;54.54
80624;BME280;70269;44.768;9.600;2023-07-13T12:39:01;97247.41;;;26.99;55.23
80624;BME280;70269;44.768;9.600;2023-07-13T12:41:30;97241.88;;;27.08;55.85
80624;BME280;70269;44.768;9.600;2023-07-13T12:43:55;97240.56;;;27.22;56.04
80624;BME280;70269;44.768;9.600;2023-07-13T12:46:24;97238.16;;;27.21;55.24
80624;BME280;70269;44.768;9.600;2023-07-13T12:48:52;97235.72;;;27.45;55.51
80624;BME280;70269;44.768;9.600;2023-07-13T12:51:21;97243.22;;;27.45;55.46
80624;BME280;70269;44.768;9.600;2023-07-13T12:53:57;97244.84;;;27.54;53.70
80624;BME280;70269;44.768;9.600;2023-07-13T12:56:25;97251.88;;;27.69;54.68
80624;BME280;70269;44.768;9.600;2023-07-13T12:58:58;97254.31;;;27.70;55.23
80624;BME280;70269;44.768;9.600;2023-07-13T13:01:29;97256.94;;;27.58;54.31
80624;BME280;70269;44.768;9.600;2023-07-13T13:03:55;97250.38;;;27.46;54.26
80624;BME280;70269;44.768;9.600;2023-07-13T13:06:28;97245.81;;;27.41;53.94
80624;BME280;70269;44.768;9.600;2023-07-13T13:08:58;97248.75;;;27.45;54.15
80624;BME280;70269;44.768;9.600;2023-07-13T13:11:26;97253.34;;;27.58;55.86
80624;BME280;70269;44.768;9.600;2023-07-13T13:13:52;97256.13;;;27.58;54.18
80624;BME280;70269;44.768;9.600;2023-07-13T13:16:21;97254.00;;;27.63;53.86
80624;BME280;70269;44.768;9.600;2023-07-13T13:18:49;97251.53;;;27.62;54.39
80624;BME280;70269;44.768;9.600;2023-07-13T13:21:15;97256.91;;;27.75;53.92
80624;BME280;70269;44.768;9.600;2023-07-13T13:23:41;97251.97;;;27.98;53.68
80624;BME280;70269;44.768;9.600;2023-07-13T13:26:11;97254.94;;;27.93;53.18
80624;BME280;70269;44.768;9.600;2023-07-13T13:28:36;97250.69;;;27.96;51.93
80624;BME280;70269;44.768;9.600;2023-07-13T13:31:02;97247.22;;;28.07;51.95
80624;BME280;70269;44.768;9.600;2023-07-13T13:33:28;97253.59;;;27.99;52.64
80624;BME280;70269;44.768;9.600;2023-07-13T13:35:53;97239.03;;;28.02;53.77
80624;BME280;70269;44.768;9.600;2023-07-13T13:38:22;97237.13;;;27.86;52.34
80624;BME280;70269;44.768;9.600;2023-07-13T13:40:49;97239.91;;;27.94;53.10
80624;BME280;70269;44.768;9.600;2023-07-13T13:43:23;97253.81;;;27.77;53.20
80624;BME280;70269;44.768;9.600;2023-07-13T13:46:09;97228.00;;;27.85;52.23
80624;BME280;70269;44.768;9.600;2023-07-13T13:48:36;97225.03;;;27.90;51.91
80624;BME280;70269;44.768;9.600;2023-07-13T13:51:17;97229.31;;;27.79;54.76